Serenity — DJLG2 — position and weather

sailwx.info

Track history (hours):
 
Tides and Currents Weather Stations Pressure Air Temp Water Temp Dewpoint Dewpoint Depression Visibility Wind Speed Wind Dir Waves Ship Positions

Serenity

Last reported at 2018-Jun-15 07:48 UTC. Time now 2018-Jun-23 07:58 UTC.
Position N 39°16' E 003°04'.
Warning: this ship's position is 8 days out of date.

Length 17 m.

Type: Sailing vessel. MMSI: 211692340.

Date/timePositionNaut miles runAvg speedWind from/ knotsBaromVisibWave heightAir tempDewpointWater temp
2018-Jun-15 07:48N 39°16' E 003°04'2 7.3
2018-Jun-15 07:29N 39°17' E 003°01'4 7.1
2018-Jun-15 06:59N 39°20' E 002°59'1 1.0
2018-Jun-15 06:21N 39°20' E 002°59'0 0.0
2018-Jun-15 05:57N 39°20' E 002°59'0 0.0
2018-Jun-15 05:27N 39°20' E 002°59'0 0.0
2018-Jun-15 04:42N 39°20' E 002°59'0 0.0
2018-Jun-15 03:39N 39°20' E 002°59'0 0.0
2018-Jun-15 03:30N 39°20' E 002°59'0 0.0
2018-Jun-15 03:00N 39°20' E 002°59'0 0.0
2018-Jun-15 02:06N 39°20' E 002°59'0 0.0
2018-Jun-15 01:57N 39°20' E 002°59'0 0.0
2018-Jun-15 01:12N 39°20' E 002°59'0 0.0
2018-Jun-15 01:00N 39°20' E 002°59'0 0.0
2018-Jun-15 00:30N 39°20' E 002°59'0 0.0
2018-Jun-15 00:00N 39°20' E 002°59'0 0.0
2018-Jun-14 23:30N 39°20' E 002°59'0 0.0
2018-Jun-14 22:57N 39°20' E 002°59'0 0.0
2018-Jun-14 18:35N 39°20' E 002°59'1 6.2
2018-Jun-14 18:25N 39°20' E 002°58'8 7.6
2018-Jun-14 17:21N 39°22' E 002°47'2 6.8
2018-Jun-14 17:00N 39°23' E 002°45'3 5.9
2018-Jun-14 16:30N 39°26' E 002°43'4 7.7
2018-Jun-14 16:00N 39°29' E 002°41'4 6.7
2018-Jun-14 15:29N 39°32' E 002°39'2 3.1
2018-Jun-14 14:58N 39°33' E 002°38'0 0.0
2018-Jun-14 14:28N 39°33' E 002°38'0 0.0
2018-Jun-14 13:58N 39°33' E 002°38'0 0.0
2018-Jun-14 13:28N 39°33' E 002°38'0 0.0
2018-Jun-14 12:58N 39°33' E 002°38'0 0.0
2018-Jun-14 12:28N 39°33' E 002°38'0 0.0
2018-Jun-14 11:58N 39°33' E 002°38'0 0.0
2018-Jun-14 11:28N 39°33' E 002°38'0 0.0
2018-Jun-14 10:58N 39°33' E 002°38'0 0.0
2018-Jun-14 10:28N 39°33' E 002°38'0 0.0
2018-Jun-14 09:58N 39°33' E 002°38'0 0.0
2018-Jun-14 09:28N 39°33' E 002°38'0 0.0
2018-Jun-14 08:58N 39°33' E 002°38'0 0.0
2018-Jun-14 08:28N 39°33' E 002°38'0 0.0
2018-Jun-14 07:58N 39°33' E 002°38'0 0.0
2018-Jun-14 07:28N 39°33' E 002°38'0 0.0
2018-Jun-14 06:58N 39°33' E 002°38'0 0.0
2018-Jun-14 06:28N 39°33' E 002°38'0 0.0
2018-Jun-14 05:58N 39°33' E 002°38'0 0.0
2018-Jun-14 05:28N 39°33' E 002°38'0 0.0
2018-Jun-14 04:58N 39°33' E 002°38'0 0.0
2018-Jun-14 04:28N 39°33' E 002°38'0 0.0
2018-Jun-14 03:58N 39°33' E 002°38'0 0.0
2018-Jun-14 03:28N 39°33' E 002°38'0 0.0
2018-Jun-14 02:58N 39°33' E 002°38'0 0.0
2018-Jun-14 02:28N 39°34' E 002°38'0 0.0
2018-Jun-14 02:00N 39°33' E 002°38'0 0.0
2018-Jun-14 01:30N 39°33' E 002°38'0 0.0
2018-Jun-14 01:00N 39°33' E 002°38'0 0.0
2018-Jun-14 00:30N 39°33' E 002°38'0 0.0
2018-Jun-14 00:00N 39°33' E 002°38'0 0.0
2018-Jun-13 23:30N 39°33' E 002°38'0 0.0
2018-Jun-13 23:00N 39°33' E 002°38'0 0.0
2018-Jun-13 22:30N 39°33' E 002°38'0 0.0
2018-Jun-13 22:00N 39°33' E 002°38'0 0.0
2018-Jun-13 21:30N 39°33' E 002°38'0 0.0
2018-Jun-13 21:00N 39°33' E 002°38'0 0.0
2018-Jun-13 20:30N 39°33' E 002°38'0 0.0
2018-Jun-13 20:00N 39°33' E 002°38'0 0.0
2018-Jun-13 19:30N 39°33' E 002°38'0 0.0
2018-Jun-13 19:00N 39°33' E 002°38'0 0.0
2018-Jun-13 18:30N 39°33' E 002°38'0 0.0
2018-Jun-13 18:00N 39°33' E 002°38'0 0.0
2018-Jun-13 17:30N 39°33' E 002°38'0 0.0
2018-Jun-13 16:59N 39°33' E 002°38'0 0.0
2018-Jun-13 16:30N 39°33' E 002°38'0 0.0
2018-Jun-13 16:00N 39°33' E 002°38'0 0.0
2018-Jun-13 15:30N 39°33' E 002°38'0 0.0
2018-Jun-13 15:00N 39°33' E 002°38'0 0.0
2018-Jun-13 14:30N 39°33' E 002°38'0 0.0
2018-Jun-13 14:00N 39°33' E 002°38'0 0.0
2018-Jun-13 13:30N 39°33' E 002°38'0 0.0
2018-Jun-13 12:58N 39°33' E 002°38'0 0.0
2018-Jun-13 12:28N 39°33' E 002°38'0 0.0
2018-Jun-13 11:58N 39°33' E 002°38'0 0.0
2018-Jun-13 11:28N 39°33' E 002°38'0 0.0
2018-Jun-13 10:58N 39°33' E 002°38'0 0.0
2018-Jun-13 10:28N 39°33' E 002°38'0 0.0
2018-Jun-13 09:58N 39°33' E 002°38'0 0.0
2018-Jun-13 09:28N 39°33' E 002°38'0 0.0
2018-Jun-13 08:58N 39°33' E 002°38'0 0.0
2018-Jun-13 08:28N 39°33' E 002°38'0 0.0
2018-Jun-13 07:58N 39°33' E 002°38'0 0.0
2018-Jun-13 07:28N 39°33' E 002°38'0 0.0
2018-Jun-13 06:58N 39°33' E 002°38'0 0.0
2018-Jun-13 06:28N 39°33' E 002°38'0 0.0
2018-Jun-13 06:00N 39°33' E 002°38'0 0.0
2018-Jun-13 05:30N 39°33' E 002°38'0 0.0
2018-Jun-13 05:00N 39°33' E 002°38'0 0.0
2018-Jun-13 04:30N 39°33' E 002°38'0 0.0
2018-Jun-13 04:00N 39°33' E 002°38'0 0.0
2018-Jun-13 03:30N 39°33' E 002°38'0 0.0
2018-Jun-13 03:00N 39°33' E 002°38'0 0.0
2018-Jun-13 02:30N 39°33' E 002°38'0 0.0
2018-Jun-13 02:00N 39°33' E 002°38'0 0.0
2018-Jun-13 01:30N 39°33' E 002°38'0 0.0
2018-Jun-13 01:00N 39°33' E 002°38'0 0.0
2018-Jun-13 00:30N 39°33' E 002°38'0 0.0
2018-Jun-13 00:00N 39°33' E 002°38'0 0.0
2018-Jun-12 23:30N 39°33' E 002°38'0 0.0
2018-Jun-12 23:00N 39°33' E 002°38'0 0.0
2018-Jun-12 22:30N 39°33' E 002°38'0 0.0
2018-Jun-12 22:00N 39°34' E 002°38'0 0.0
2018-Jun-12 21:30N 39°33' E 002°38'0 0.0
2018-Jun-12 21:00N 39°33' E 002°38'0 0.0
2018-Jun-12 20:30N 39°33' E 002°38'0 0.0
2018-Jun-12 20:00N 39°33' E 002°38'0 0.0
2018-Jun-12 19:30N 39°33' E 002°38'0 0.0
2018-Jun-12 18:48N 39°33' E 002°38'0 0.0
2018-Jun-12 18:21N 39°33' E 002°38'0 0.0
2018-Jun-12 18:00N 39°33' E 002°38'0 0.0
2018-Jun-12 17:30N 39°33' E 002°38'0 0.0
2018-Jun-12 17:00N 39°33' E 002°38'0 0.0
2018-Jun-12 16:30N 39°33' E 002°38'0 0.0
2018-Jun-12 16:00N 39°33' E 002°38'0 0.0
2018-Jun-12 15:30N 39°33' E 002°38'0 0.0
2018-Jun-12 15:00N 39°33' E 002°38'0 0.0
2018-Jun-12 14:30N 39°33' E 002°38'0 0.0
2018-Jun-12 14:00N 39°34' E 002°38'0 0.0
2018-Jun-12 13:30N 39°33' E 002°38'0 0.0
2018-Jun-12 13:00N 39°33' E 002°38'0 0.0
2018-Jun-12 12:30N 39°33' E 002°38'0 0.0
2018-Jun-12 12:00N 39°33' E 002°38'0 0.0
2018-Jun-12 11:30N 39°33' E 002°38'0 0.0
2018-Jun-12 10:59N 39°33' E 002°38'0 0.0
2018-Jun-12 10:29N 39°33' E 002°38'0 0.0
2018-Jun-12 09:59N 39°33' E 002°38'0 0.0
2018-Jun-12 09:29N 39°33' E 002°38'0 0.0
2018-Jun-12 08:56N 39°33' E 002°38'0 0.0
2018-Jun-12 08:29N 39°33' E 002°38'0 0.0
2018-Jun-12 07:59N 39°33' E 002°38'0 0.0
2018-Jun-12 07:29N 39°33' E 002°38'0 0.0
2018-Jun-12 06:59N 39°34' E 002°38'0 0.0
2018-Jun-12 06:29N 39°33' E 002°38'0 0.0
2018-Jun-12 05:59N 39°33' E 002°38'0 0.0
2018-Jun-12 05:29N 39°33' E 002°38'0 0.0
2018-Jun-12 04:59N 39°33' E 002°38'0 0.0
2018-Jun-12 04:26N 39°33' E 002°38'0 0.0
2018-Jun-12 03:59N 39°33' E 002°38'0 0.0
2018-Jun-12 03:29N 39°33' E 002°38'0 0.0
2018-Jun-12 02:59N 39°34' E 002°38'0 0.0
2018-Jun-12 02:29N 39°33' E 002°38'0 0.0
2018-Jun-12 01:59N 39°33' E 002°38'0 0.0
2018-Jun-12 01:29N 39°33' E 002°38'0 0.0
2018-Jun-12 00:56N 39°33' E 002°38'0 0.0
2018-Jun-12 00:29N 39°33' E 002°38'0 0.0
2018-Jun-11 23:59N 39°33' E 002°38'0 0.0
2018-Jun-11 23:29N 39°33' E 002°38'0 0.0
2018-Jun-11 22:59N 39°33' E 002°38'0 0.0
2018-Jun-11 22:30N 39°33' E 002°38'0 0.0
2018-Jun-11 22:00N 39°33' E 002°38'0 0.0
2018-Jun-11 21:30N 39°33' E 002°38'0 0.0
2018-Jun-11 21:00N 39°33' E 002°38'0 0.0
2018-Jun-11 20:29N 39°33' E 002°38'0 0.0
2018-Jun-11 19:59N 39°33' E 002°38'0 0.0
2018-Jun-11 19:29N 39°33' E 002°38'0 0.0
2018-Jun-11 18:59N 39°33' E 002°38'0 0.0
2018-Jun-11 18:29N 39°33' E 002°38'0 0.0
2018-Jun-11 17:59N 39°33' E 002°38'0 0.0
2018-Jun-11 17:29N 39°33' E 002°38'0 0.0
2018-Jun-11 16:59N 39°33' E 002°38'0 0.0
2018-Jun-11 16:30N 39°33' E 002°38'0 0.0
2018-Jun-11 15:59N 39°33' E 002°38'0 0.0
2018-Jun-11 15:29N 39°33' E 002°38'0 0.0
2018-Jun-11 14:59N 39°33' E 002°38'0 0.0
2018-Jun-11 14:30N 39°33' E 002°38'0 0.0
2018-Jun-11 13:59N 39°33' E 002°38'0 0.0
2018-Jun-11 13:29N 39°33' E 002°38'0 0.0
2018-Jun-11 12:59N 39°33' E 002°38'0 0.0
2018-Jun-11 12:29N 39°33' E 002°38'0 0.0
2018-Jun-11 11:59N 39°33' E 002°38'0 0.0
2018-Jun-11 11:29N 39°33' E 002°38'0 0.0
2018-Jun-11 10:59N 39°33' E 002°38'0 0.0
2018-Jun-11 10:29N 39°33' E 002°38'0 0.0
2018-Jun-11 09:59N 39°33' E 002°38'0 0.0
2018-Jun-11 09:29N 39°33' E 002°38'0 0.0
2018-Jun-11 08:59N 39°33' E 002°38'0 0.0
2018-Jun-11 08:29N 39°33' E 002°38'0 0.0
2018-Jun-11 07:59N 39°33' E 002°38'0 0.0
2018-Jun-11 07:23N 39°33' E 002°38'0 0.0
2018-Jun-11 06:59N 39°34' E 002°38'0 0.0
2018-Jun-11 06:29N 39°33' E 002°38'0 0.0
2018-Jun-11 05:59N 39°33' E 002°38'0 0.0
2018-Jun-11 05:29N 39°33' E 002°38'0 0.0
2018-Jun-11 04:59N 39°33' E 002°38'0 0.0
2018-Jun-11 04:29N 39°33' E 002°38'0 0.0
2018-Jun-11 03:59N 39°33' E 002°38'0 0.0
2018-Jun-11 03:29N 39°34' E 002°38'0 0.0
2018-Jun-11 02:59N 39°33' E 002°38'0 0.0
2018-Jun-11 02:29N 39°34' E 002°38'0 0.0
2018-Jun-11 01:59N 39°33' E 002°38'0 0.0
2018-Jun-11 01:29N 39°33' E 002°38'0 0.0
2018-Jun-11 00:59N 39°33' E 002°38'0 0.0
2018-Jun-11 00:29N 39°33' E 002°38'0 0.0
2018-Jun-10 23:59N 39°33' E 002°38'0 0.0
2018-Jun-10 23:29N 39°33' E 002°38'0 0.0
2018-Jun-10 22:59N 39°33' E 002°38'0 0.0
2018-Jun-10 22:29N 39°33' E 002°38'0 0.0
2018-Jun-10 21:58N 39°33' E 002°38'0 0.0
2018-Jun-10 21:28N 39°33' E 002°38'0 0.0
2018-Jun-10 20:58N 39°33' E 002°38'0 0.0
2018-Jun-10 20:28N 39°33' E 002°38'0 0.0
2018-Jun-10 20:00N 39°33' E 002°38'0 0.0
2018-Jun-10 19:31N 39°33' E 002°38'0 0.0
2018-Jun-10 18:57N 39°33' E 002°38'0 0.0
2018-Jun-10 18:31N 39°33' E 002°38'0 0.0
2018-Jun-10 18:00N 39°33' E 002°38'0 0.0
2018-Jun-10 17:30N 39°33' E 002°38'0 0.0
2018-Jun-10 17:00N 39°33' E 002°38'0 0.0
2018-Jun-10 16:30N 39°33' E 002°38'0 0.0
2018-Jun-10 16:00N 39°33' E 002°38'0 0.0
2018-Jun-10 15:30N 39°33' E 002°38'0 0.0
2018-Jun-10 15:00N 39°33' E 002°38'0 0.0
2018-Jun-10 14:30N 39°34' E 002°38'0 0.0
2018-Jun-10 13:30N 39°33' E 002°38'0 0.0
2018-Jun-10 13:00N 39°33' E 002°38'0 0.0
2018-Jun-10 12:30N 39°33' E 002°38'0 0.0
2018-Jun-10 12:00N 39°33' E 002°38'0 0.0
2018-Jun-10 11:30N 39°33' E 002°38'0 0.0
2018-Jun-10 11:00N 39°33' E 002°38'0 0.0
2018-Jun-10 10:27N 39°33' E 002°38'0 0.0
2018-Jun-10 10:00N 39°33' E 002°38'0 0.0
2018-Jun-10 09:27N 39°33' E 002°38'0 0.0
2018-Jun-10 09:00N 39°33' E 002°38'0 0.0
2018-Jun-10 08:30N 39°33' E 002°38'0 0.0
2018-Jun-10 08:00N 39°33' E 002°38'0 0.0
2018-Jun-10 07:30N 39°33' E 002°38'0 0.0
2018-Jun-10 07:00N 39°33' E 002°38'0 0.0
2018-Jun-10 06:30N 39°33' E 002°38'0 0.0
2018-Jun-10 06:00N 39°33' E 002°38'0 0.0
2018-Jun-10 05:30N 39°33' E 002°38'0 0.0
2018-Jun-10 05:00N 39°33' E 002°38'0 0.0
2018-Jun-10 04:30N 39°33' E 002°38'0 0.0
2018-Jun-10 04:00N 39°33' E 002°38'0 0.0
2018-Jun-10 03:31N 39°34' E 002°38'0 0.0
2018-Jun-10 03:00N 39°33' E 002°38'0 0.0
2018-Jun-10 02:27N 39°34' E 002°38'0 0.0
2018-Jun-10 02:00N 39°33' E 002°38'0 0.0
2018-Jun-10 01:30N 39°33' E 002°38'0 0.0
2018-Jun-10 01:00N 39°33' E 002°38'0 0.0
2018-Jun-10 00:30N 39°33' E 002°38'0 0.0
2018-Jun-10 00:00N 39°33' E 002°38'0 0.0
2018-Jun-09 23:30N 39°33' E 002°38'0 0.0
2018-Jun-09 23:00N 39°33' E 002°38'0 0.0
2018-Jun-09 22:30N 39°33' E 002°38'0 0.0
2018-Jun-09 22:00N 39°33' E 002°38'0 0.0
2018-Jun-09 21:30N 39°33' E 002°38'0 0.0
2018-Jun-09 21:00N 39°33' E 002°38'0 0.0
2018-Jun-09 20:30N 39°33' E 002°38'0 0.0
2018-Jun-09 20:00N 39°33' E 002°38'0 0.0
2018-Jun-09 19:27N 39°33' E 002°38'0 0.0
2018-Jun-09 19:00N 39°33' E 002°38'0 0.0
2018-Jun-09 18:30N 39°33' E 002°38'0 0.0
2018-Jun-09 18:00N 39°33' E 002°38'0 0.0
2018-Jun-09 17:30N 39°33' E 002°38'0 0.0
2018-Jun-09 17:00N 39°33' E 002°38'0 0.0
2018-Jun-09 16:30N 39°33' E 002°38'0 0.0
2018-Jun-09 16:00N 39°33' E 002°38'0 0.0
2018-Jun-09 15:00N 39°34' E 002°38'0 0.0
2018-Jun-09 14:30N 39°33' E 002°38'0 0.0
2018-Jun-09 14:00N 39°33' E 002°38'0 0.0
2018-Jun-09 13:27N 39°33' E 002°38'0 0.0
2018-Jun-09 12:57N 39°33' E 002°38'0 0.0
2018-Jun-09 12:30N 39°33' E 002°38'0 0.0
2018-Jun-09 12:00N 39°33' E 002°38'0 0.0
2018-Jun-09 11:30N 39°33' E 002°38'0 0.0
2018-Jun-09 11:00N 39°34' E 002°38'0 0.0
2018-Jun-09 10:27N 39°33' E 002°38'0 0.0
2018-Jun-09 10:00N 39°33' E 002°38'0 0.0
2018-Jun-09 09:30N 39°33' E 002°38'0 0.0
2018-Jun-09 09:00N 39°33' E 002°38'0 0.0
2018-Jun-09 08:30N 39°33' E 002°38'0 0.0
2018-Jun-09 08:00N 39°33' E 002°38'0 0.0
2018-Jun-09 07:30N 39°33' E 002°38'0 0.0
2018-Jun-09 07:00N 39°33' E 002°38'0 0.0
2018-Jun-09 06:30N 39°33' E 002°38'0 0.0
2018-Jun-09 06:00N 39°34' E 002°38'0 0.0
2018-Jun-09 05:30N 39°33' E 002°38'0 0.0
2018-Jun-09 05:00N 39°33' E 002°38'0 0.0
2018-Jun-09 04:30N 39°33' E 002°38'0 0.0
2018-Jun-09 04:00N 39°33' E 002°38'0 0.0
2018-Jun-09 03:30N 39°34' E 002°38'0 0.0
2018-Jun-09 03:00N 39°33' E 002°38'0 0.0
2018-Jun-09 02:30N 39°33' E 002°38'0 0.0
2018-Jun-09 02:00N 39°33' E 002°38'0 0.0
2018-Jun-09 01:30N 39°33' E 002°38'0 0.0
2018-Jun-09 01:00N 39°33' E 002°38'0 0.0
2018-Jun-09 00:30N 39°33' E 002°38'0 0.0
2018-Jun-09 00:00N 39°33' E 002°38'0 0.0
2018-Jun-08 23:30N 39°33' E 002°38'0 0.0
2018-Jun-08 23:00N 39°33' E 002°38'0 0.0
2018-Jun-08 22:30N 39°33' E 002°38'0 0.0
2018-Jun-08 21:59N 39°34' E 002°38'0 0.0
2018-Jun-08 21:30N 39°33' E 002°38'0 0.0
2018-Jun-08 20:54N 39°33' E 002°38'0 0.0
2018-Jun-08 20:30N 39°33' E 002°38'0 0.0
2018-Jun-08 20:00N 39°33' E 002°38'0 0.0
2018-Jun-08 19:29N 39°33' E 002°38'0 0.0
2018-Jun-08 19:00N 39°33' E 002°38'0 0.0
2018-Jun-08 18:29N 39°33' E 002°38'0 0.0
2018-Jun-08 17:59N 39°33' E 002°38'0 0.0
2018-Jun-08 17:29N 39°33' E 002°38'0 0.0
2018-Jun-08 16:59N 39°33' E 002°38'0 0.0
2018-Jun-08 16:29N 39°33' E 002°38'0 0.0
2018-Jun-08 15:59N 39°33' E 002°38'0 0.0
2018-Jun-08 15:29N 39°33' E 002°38'0 0.0
2018-Jun-08 14:59N 39°34' E 002°38'0 0.0
2018-Jun-08 14:30N 39°33' E 002°38'0 0.0
2018-Jun-08 13:58N 39°33' E 002°38'0 0.0
2018-Jun-08 13:28N 39°33' E 002°38'0 0.0
2018-Jun-08 12:58N 39°33' E 002°38'0 0.0
2018-Jun-08 12:28N 39°33' E 002°38'0 0.0
2018-Jun-08 11:58N 39°33' E 002°38'0 0.0
2018-Jun-08 11:28N 39°33' E 002°38'0 0.0
2018-Jun-08 10:58N 39°33' E 002°38'0 0.0
2018-Jun-08 10:28N 39°33' E 002°38'0 0.0
2018-Jun-08 09:58N 39°33' E 002°38'0 0.0
2018-Jun-08 09:28N 39°33' E 002°38'0 0.0
2018-Jun-08 08:58N 39°33' E 002°38'0 0.0
2018-Jun-08 08:28N 39°33' E 002°38'0 0.0
2018-Jun-08 07:58N 39°33' E 002°38'0 0.0
2018-Jun-08 07:28N 39°33' E 002°38'0 0.0
2018-Jun-08 07:00N 39°33' E 002°38'0 0.0
2018-Jun-08 06:30N 39°33' E 002°38'0 0.0
2018-Jun-08 06:00N 39°33' E 002°38'0 0.0
2018-Jun-08 05:30N 39°33' E 002°38'0 0.0
2018-Jun-08 05:00N 39°33' E 002°38'0 0.0
2018-Jun-08 04:30N 39°33' E 002°38'0 0.0
2018-Jun-08 04:00N 39°33' E 002°38'0 0.0
2018-Jun-08 03:30N 39°34' E 002°38'0 0.0
2018-Jun-08 02:59N 39°33' E 002°38'0 0.0
2018-Jun-08 02:29N 39°33' E 002°38'0 0.0
2018-Jun-08 01:59N 39°33' E 002°38'0 0.0
2018-Jun-08 01:29N 39°33' E 002°38'0 0.0
2018-Jun-08 00:59N 39°33' E 002°38'0 0.0
2018-Jun-08 00:29N 39°33' E 002°38'0 0.0
2018-Jun-07 23:59N 39°33' E 002°38'0 0.0
2018-Jun-07 23:29N 39°33' E 002°38'0 0.0
2018-Jun-07 23:00N 39°33' E 002°38'0 0.0
2018-Jun-07 22:30N 39°33' E 002°38'0 0.0
2018-Jun-07 22:00N 39°33' E 002°38'0 0.0
2018-Jun-07 21:30N 39°33' E 002°38'0 0.0
2018-Jun-07 21:00N 39°33' E 002°38'0 0.0
2018-Jun-07 20:30N 39°33' E 002°38'0 0.0
2018-Jun-07 20:00N 39°33' E 002°38'0 0.0
2018-Jun-07 19:30N 39°33' E 002°38'0 0.0
2018-Jun-07 19:00N 39°33' E 002°38'0 0.0
2018-Jun-07 18:30N 39°33' E 002°38'0 0.0
2018-Jun-07 18:00N 39°33' E 002°38'0 0.0
2018-Jun-07 17:30N 39°33' E 002°38'0 0.0
2018-Jun-07 17:00N 39°33' E 002°38'0 0.0
2018-Jun-07 16:30N 39°33' E 002°38'0 0.0
2018-Jun-07 16:00N 39°33' E 002°38'0 0.0
2018-Jun-07 15:30N 39°33' E 002°38'0 0.0
2018-Jun-07 15:00N 39°34' E 002°38'0 0.0
2018-Jun-07 14:30N 39°33' E 002°38'0 0.0
2018-Jun-07 14:00N 39°33' E 002°38'0 0.0
2018-Jun-07 13:30N 39°34' E 002°38'0 0.0
2018-Jun-07 13:00N 39°33' E 002°38'0 0.0
2018-Jun-07 12:30N 39°33' E 002°38'0 0.0
2018-Jun-07 12:00N 39°34' E 002°38'0 0.0
2018-Jun-07 11:30N 39°33' E 002°38'0 0.0
2018-Jun-07 11:00N 39°34' E 002°38'0 0.0
2018-Jun-07 10:28N 39°33' E 002°38'0 0.0
2018-Jun-07 09:58N 39°33' E 002°38'0 0.0
2018-Jun-07 09:28N 39°33' E 002°38'0 0.0
2018-Jun-07 08:58N 39°33' E 002°38'0 0.0
2018-Jun-07 08:28N 39°33' E 002°38'0 0.0
2018-Jun-07 07:58N 39°33' E 002°38'0 0.0
2018-Jun-07 07:28N 39°33' E 002°38'0 0.0
2018-Jun-07 06:58N 39°33' E 002°38'0 0.0
2018-Jun-07 06:28N 39°33' E 002°38'0 0.0
2018-Jun-07 05:58N 39°33' E 002°38'0 0.0
2018-Jun-07 05:28N 39°33' E 002°38'0 0.0
2018-Jun-07 04:58N 39°33' E 002°38'0 0.0
2018-Jun-07 04:28N 39°33' E 002°38'0 0.0
2018-Jun-07 03:58N 39°33' E 002°38'0 0.0
2018-Jun-07 03:28N 39°34' E 002°38'0 0.0
2018-Jun-07 02:58N 39°34' E 002°38'0 0.0
2018-Jun-07 02:28N 39°33' E 002°38'0 0.0
2018-Jun-07 01:58N 39°33' E 002°38'0 0.0
2018-Jun-07 01:28N 39°33' E 002°38'0 0.0
2018-Jun-07 00:58N 39°33' E 002°38'0 0.0
2018-Jun-07 00:28N 39°33' E 002°38'0 0.0
2018-Jun-06 23:58N 39°33' E 002°38'0 0.0
2018-Jun-06 23:28N 39°33' E 002°38'0 0.0
2018-Jun-06 22:58N 39°33' E 002°38'0 0.0
2018-Jun-06 22:28N 39°33' E 002°38'0 0.0
2018-Jun-06 21:58N 39°33' E 002°38'0 0.0
2018-Jun-06 21:28N 39°33' E 002°38'0 0.2
2018-Jun-06 20:59N 39°33' E 002°38'2 4.6
2018-Jun-06 20:30N 39°31' E 002°37'4 7.8
2018-Jun-06 20:00N 39°29' E 002°33'4 7.7
2018-Jun-06 19:30N 39°26' E 002°29'49 7.3
2018-Jun-06 12:44N 38°59' E 001°37'2 7.8
2018-Jun-06 12:30N 38°58' E 001°35'4 7.8
2018-Jun-06 12:00N 38°55' E 001°31'3 6.0
2018-Jun-06 11:26N 38°54' E 001°27'0 0.9
2018-Jun-06 10:59N 38°55' E 001°27'0 0.0
2018-Jun-06 10:29N 38°55' E 001°27'0 0.0
2018-Jun-06 09:59N 38°55' E 001°27'0 0.0
2018-Jun-06 09:31N 38°55' E 001°27'0 0.0
2018-Jun-06 08:55N 38°55' E 001°27'0 0.0
2018-Jun-06 08:28N 38°55' E 001°27'0 0.0
2018-Jun-06 07:55N 38°55' E 001°27'0 0.0
2018-Jun-06 07:28N 38°55' E 001°27'0 0.0
2018-Jun-06 06:58N 38°55' E 001°27'0 0.0
2018-Jun-06 06:22N 38°55' E 001°27'0 0.0
2018-Jun-06 01:19N 38°55' E 001°27'0 0.0
2018-Jun-05 21:49N 38°55' E 001°27'0 0.0
2018-Jun-05 20:58N 38°55' E 001°27'0 0.0
2018-Jun-05 19:16N 38°55' E 001°27'0 0.0
2018-Jun-05 18:58N 38°55' E 001°27'0 0.0
2018-Jun-05 18:16N 38°55' E 001°27'0 0.0
2018-Jun-05 17:58N 38°55' E 001°27'0 0.0
2018-Jun-05 17:31N 38°55' E 001°27'0 0.0
2018-Jun-05 16:58N 38°55' E 001°27'0 0.0
2018-Jun-05 16:28N 38°55' E 001°27'0 0.0
2018-Jun-05 15:58N 38°55' E 001°27'0 0.0
2018-Jun-05 15:28N 38°55' E 001°27'0 0.0
2018-Jun-05 15:01N 38°55' E 001°27'0 0.0
2018-Jun-05 14:28N 38°55' E 001°27'0 0.0
2018-Jun-05 13:58N 38°55' E 001°27'0 0.0
2018-Jun-05 13:28N 38°55' E 001°27'0 0.0
2018-Jun-05 13:01N 38°55' E 001°27'0 0.0
2018-Jun-05 12:28N 38°55' E 001°27'0 0.0
2018-Jun-05 11:58N 38°55' E 001°27'0 0.0
2018-Jun-05 11:31N 38°55' E 001°27'0 0.0
2018-Jun-05 10:58N 38°55' E 001°27'0 0.0
2018-Jun-05 10:28N 38°55' E 001°27'0 0.0
2018-Jun-05 09:58N 38°55' E 001°27'0 0.0
2018-Jun-05 09:28N 38°55' E 001°27'0 0.0
2018-Jun-05 08:58N 38°55' E 001°27'0 0.0
2018-Jun-05 08:28N 38°55' E 001°27'0 0.0
2018-Jun-05 08:01N 38°55' E 001°27'  
Track history (hours):
 
Tides and Currents Weather Stations Pressure Air Temp Water Temp Dewpoint Dewpoint Depression Visibility Wind Speed Wind Dir Waves Ship Positions

Serenity

Last reported at 2018-Jun-15 07:48 UTC. Time now 2018-Jun-23 07:58 UTC.
Position N 39°16' E 003°04'.
Warning: this ship's position is 8 days out of date.

Length 17 m.

Type: Sailing vessel. MMSI: 211692340.

Date/timePositionNaut miles runAvg speedWind from/ knotsBaromVisibWave heightAir tempDewpointWater temp
2018-Jun-15 07:48N 39°16' E 003°04'2 7.3
2018-Jun-15 07:29N 39°17' E 003°01'4 7.1
2018-Jun-15 06:59N 39°20' E 002°59'1 1.0
2018-Jun-15 06:21N 39°20' E 002°59'0 0.0
2018-Jun-15 05:57N 39°20' E 002°59'0 0.0
2018-Jun-15 05:27N 39°20' E 002°59'0 0.0
2018-Jun-15 04:42N 39°20' E 002°59'0 0.0
2018-Jun-15 03:39N 39°20' E 002°59'0 0.0
2018-Jun-15 03:30N 39°20' E 002°59'0 0.0
2018-Jun-15 03:00N 39°20' E 002°59'0 0.0
2018-Jun-15 02:06N 39°20' E 002°59'0 0.0
2018-Jun-15 01:57N 39°20' E 002°59'0 0.0
2018-Jun-15 01:12N 39°20' E 002°59'0 0.0
2018-Jun-15 01:00N 39°20' E 002°59'0 0.0
2018-Jun-15 00:30N 39°20' E 002°59'0 0.0
2018-Jun-15 00:00N 39°20' E 002°59'0 0.0
2018-Jun-14 23:30N 39°20' E 002°59'0 0.0
2018-Jun-14 22:57N 39°20' E 002°59'0 0.0
2018-Jun-14 18:35N 39°20' E 002°59'1 6.2
2018-Jun-14 18:25N 39°20' E 002°58'8 7.6
2018-Jun-14 17:21N 39°22' E 002°47'2 6.8
2018-Jun-14 17:00N 39°23' E 002°45'3 5.9
2018-Jun-14 16:30N 39°26' E 002°43'4 7.7
2018-Jun-14 16:00N 39°29' E 002°41'4 6.7
2018-Jun-14 15:29N 39°32' E 002°39'2 3.1
2018-Jun-14 14:58N 39°33' E 002°38'0 0.0
2018-Jun-14 14:28N 39°33' E 002°38'0 0.0
2018-Jun-14 13:58N 39°33' E 002°38'0 0.0
2018-Jun-14 13:28N 39°33' E 002°38'0 0.0
2018-Jun-14 12:58N 39°33' E 002°38'0 0.0
2018-Jun-14 12:28N 39°33' E 002°38'0 0.0
2018-Jun-14 11:58N 39°33' E 002°38'0 0.0
2018-Jun-14 11:28N 39°33' E 002°38'0 0.0
2018-Jun-14 10:58N 39°33' E 002°38'0 0.0
2018-Jun-14 10:28N 39°33' E 002°38'0 0.0
2018-Jun-14 09:58N 39°33' E 002°38'0 0.0
2018-Jun-14 09:28N 39°33' E 002°38'0 0.0
2018-Jun-14 08:58N 39°33' E 002°38'0 0.0
2018-Jun-14 08:28N 39°33' E 002°38'0 0.0
2018-Jun-14 07:58N 39°33' E 002°38'0 0.0
2018-Jun-14 07:28N 39°33' E 002°38'0 0.0
2018-Jun-14 06:58N 39°33' E 002°38'0 0.0
2018-Jun-14 06:28N 39°33' E 002°38'0 0.0
2018-Jun-14 05:58N 39°33' E 002°38'0 0.0
2018-Jun-14 05:28N 39°33' E 002°38'0 0.0
2018-Jun-14 04:58N 39°33' E 002°38'0 0.0
2018-Jun-14 04:28N 39°33' E 002°38'0 0.0
2018-Jun-14 03:58N 39°33' E 002°38'0 0.0
2018-Jun-14 03:28N 39°33' E 002°38'0 0.0
2018-Jun-14 02:58N 39°33' E 002°38'0 0.0
2018-Jun-14 02:28N 39°34' E 002°38'0 0.0
2018-Jun-14 02:00N 39°33' E 002°38'0 0.0
2018-Jun-14 01:30N 39°33' E 002°38'0 0.0
2018-Jun-14 01:00N 39°33' E 002°38'0 0.0
2018-Jun-14 00:30N 39°33' E 002°38'0 0.0
2018-Jun-14 00:00N 39°33' E 002°38'0 0.0
2018-Jun-13 23:30N 39°33' E 002°38'0 0.0
2018-Jun-13 23:00N 39°33' E 002°38'0 0.0
2018-Jun-13 22:30N 39°33' E 002°38'0 0.0
2018-Jun-13 22:00N 39°33' E 002°38'0 0.0
2018-Jun-13 21:30N 39°33' E 002°38'0 0.0
2018-Jun-13 21:00N 39°33' E 002°38'0 0.0
2018-Jun-13 20:30N 39°33' E 002°38'0 0.0
2018-Jun-13 20:00N 39°33' E 002°38'0 0.0
2018-Jun-13 19:30N 39°33' E 002°38'0 0.0
2018-Jun-13 19:00N 39°33' E 002°38'0 0.0
2018-Jun-13 18:30N 39°33' E 002°38'0 0.0
2018-Jun-13 18:00N 39°33' E 002°38'0 0.0
2018-Jun-13 17:30N 39°33' E 002°38'0 0.0
2018-Jun-13 16:59N 39°33' E 002°38'0 0.0
2018-Jun-13 16:30N 39°33' E 002°38'0 0.0
2018-Jun-13 16:00N 39°33' E 002°38'0 0.0
2018-Jun-13 15:30N 39°33' E 002°38'0 0.0
2018-Jun-13 15:00N 39°33' E 002°38'0 0.0
2018-Jun-13 14:30N 39°33' E 002°38'0 0.0
2018-Jun-13 14:00N 39°33' E 002°38'0 0.0
2018-Jun-13 13:30N 39°33' E 002°38'0 0.0
2018-Jun-13 12:58N 39°33' E 002°38'0 0.0
2018-Jun-13 12:28N 39°33' E 002°38'0 0.0
2018-Jun-13 11:58N 39°33' E 002°38'0 0.0
2018-Jun-13 11:28N 39°33' E 002°38'0 0.0
2018-Jun-13 10:58N 39°33' E 002°38'0 0.0
2018-Jun-13 10:28N 39°33' E 002°38'0 0.0
2018-Jun-13 09:58N 39°33' E 002°38'0 0.0
2018-Jun-13 09:28N 39°33' E 002°38'0 0.0
2018-Jun-13 08:58N 39°33' E 002°38'0 0.0
2018-Jun-13 08:28N 39°33' E 002°38'0 0.0
2018-Jun-13 07:58N 39°33' E 002°38'0 0.0
2018-Jun-13 07:28N 39°33' E 002°38'0 0.0
2018-Jun-13 06:58N 39°33' E 002°38'0 0.0
2018-Jun-13 06:28N 39°33' E 002°38'0 0.0
2018-Jun-13 06:00N 39°33' E 002°38'0 0.0
2018-Jun-13 05:30N 39°33' E 002°38'0 0.0
2018-Jun-13 05:00N 39°33' E 002°38'0 0.0
2018-Jun-13 04:30N 39°33' E 002°38'0 0.0
2018-Jun-13 04:00N 39°33' E 002°38'0 0.0
2018-Jun-13 03:30N 39°33' E 002°38'0 0.0
2018-Jun-13 03:00N 39°33' E 002°38'0 0.0
2018-Jun-13 02:30N 39°33' E 002°38'0 0.0
2018-Jun-13 02:00N 39°33' E 002°38'0 0.0
2018-Jun-13 01:30N 39°33' E 002°38'0 0.0
2018-Jun-13 01:00N 39°33' E 002°38'0 0.0
2018-Jun-13 00:30N 39°33' E 002°38'0 0.0
2018-Jun-13 00:00N 39°33' E 002°38'0 0.0
2018-Jun-12 23:30N 39°33' E 002°38'0 0.0
2018-Jun-12 23:00N 39°33' E 002°38'0 0.0
2018-Jun-12 22:30N 39°33' E 002°38'0 0.0
2018-Jun-12 22:00N 39°34' E 002°38'0 0.0
2018-Jun-12 21:30N 39°33' E 002°38'0 0.0
2018-Jun-12 21:00N 39°33' E 002°38'0 0.0
2018-Jun-12 20:30N 39°33' E 002°38'0 0.0
2018-Jun-12 20:00N 39°33' E 002°38'0 0.0
2018-Jun-12 19:30N 39°33' E 002°38'0 0.0
2018-Jun-12 18:48N 39°33' E 002°38'0 0.0
2018-Jun-12 18:21N 39°33' E 002°38'0 0.0
2018-Jun-12 18:00N 39°33' E 002°38'0 0.0
2018-Jun-12 17:30N 39°33' E 002°38'0 0.0
2018-Jun-12 17:00N 39°33' E 002°38'0 0.0
2018-Jun-12 16:30N 39°33' E 002°38'0 0.0
2018-Jun-12 16:00N 39°33' E 002°38'0 0.0
2018-Jun-12 15:30N 39°33' E 002°38'0 0.0
2018-Jun-12 15:00N 39°33' E 002°38'0 0.0
2018-Jun-12 14:30N 39°33' E 002°38'0 0.0
2018-Jun-12 14:00N 39°34' E 002°38'0 0.0
2018-Jun-12 13:30N 39°33' E 002°38'0 0.0
2018-Jun-12 13:00N 39°33' E 002°38'0 0.0
2018-Jun-12 12:30N 39°33' E 002°38'0 0.0
2018-Jun-12 12:00N 39°33' E 002°38'0 0.0
2018-Jun-12 11:30N 39°33' E 002°38'0 0.0
2018-Jun-12 10:59N 39°33' E 002°38'0 0.0
2018-Jun-12 10:29N 39°33' E 002°38'0 0.0
2018-Jun-12 09:59N 39°33' E 002°38'0 0.0
2018-Jun-12 09:29N 39°33' E 002°38'0 0.0
2018-Jun-12 08:56N 39°33' E 002°38'0 0.0
2018-Jun-12 08:29N 39°33' E 002°38'0 0.0
2018-Jun-12 07:59N 39°33' E 002°38'0 0.0
2018-Jun-12 07:29N 39°33' E 002°38'0 0.0
2018-Jun-12 06:59N 39°34' E 002°38'0 0.0
2018-Jun-12 06:29N 39°33' E 002°38'0 0.0
2018-Jun-12 05:59N 39°33' E 002°38'0 0.0
2018-Jun-12 05:29N 39°33' E 002°38'0 0.0
2018-Jun-12 04:59N 39°33' E 002°38'0 0.0
2018-Jun-12 04:26N 39°33' E 002°38'0 0.0
2018-Jun-12 03:59N 39°33' E 002°38'0 0.0
2018-Jun-12 03:29N 39°33' E 002°38'0 0.0
2018-Jun-12 02:59N 39°34' E 002°38'0 0.0
2018-Jun-12 02:29N 39°33' E 002°38'0 0.0
2018-Jun-12 01:59N 39°33' E 002°38'0 0.0
2018-Jun-12 01:29N 39°33' E 002°38'0 0.0
2018-Jun-12 00:56N 39°33' E 002°38'0 0.0
2018-Jun-12 00:29N 39°33' E 002°38'0 0.0
2018-Jun-11 23:59N 39°33' E 002°38'0 0.0
2018-Jun-11 23:29N 39°33' E 002°38'0 0.0
2018-Jun-11 22:59N 39°33' E 002°38'0 0.0
2018-Jun-11 22:30N 39°33' E 002°38'0 0.0
2018-Jun-11 22:00N 39°33' E 002°38'0 0.0
2018-Jun-11 21:30N 39°33' E 002°38'0 0.0
2018-Jun-11 21:00N 39°33' E 002°38'0 0.0
2018-Jun-11 20:29N 39°33' E 002°38'0 0.0
2018-Jun-11 19:59N 39°33' E 002°38'0 0.0
2018-Jun-11 19:29N 39°33' E 002°38'0 0.0
2018-Jun-11 18:59N 39°33' E 002°38'0 0.0
2018-Jun-11 18:29N 39°33' E 002°38'0 0.0
2018-Jun-11 17:59N 39°33' E 002°38'0 0.0
2018-Jun-11 17:29N 39°33' E 002°38'0 0.0
2018-Jun-11 16:59N 39°33' E 002°38'0 0.0
2018-Jun-11 16:30N 39°33' E 002°38'0 0.0
2018-Jun-11 15:59N 39°33' E 002°38'0 0.0
2018-Jun-11 15:29N 39°33' E 002°38'0 0.0
2018-Jun-11 14:59N 39°33' E 002°38'0 0.0
2018-Jun-11 14:30N 39°33' E 002°38'0 0.0
2018-Jun-11 13:59N 39°33' E 002°38'0 0.0
2018-Jun-11 13:29N 39°33' E 002°38'0 0.0
2018-Jun-11 12:59N 39°33' E 002°38'0 0.0
2018-Jun-11 12:29N 39°33' E 002°38'0 0.0
2018-Jun-11 11:59N 39°33' E 002°38'0 0.0
2018-Jun-11 11:29N 39°33' E 002°38'0 0.0
2018-Jun-11 10:59N 39°33' E 002°38'0 0.0
2018-Jun-11 10:29N 39°33' E 002°38'0 0.0
2018-Jun-11 09:59N 39°33' E 002°38'0 0.0
2018-Jun-11 09:29N 39°33' E 002°38'0 0.0
2018-Jun-11 08:59N 39°33' E 002°38'0 0.0
2018-Jun-11 08:29N 39°33' E 002°38'0 0.0
2018-Jun-11 07:59N 39°33' E 002°38'0 0.0
2018-Jun-11 07:23N 39°33' E 002°38'0 0.0
2018-Jun-11 06:59N 39°34' E 002°38'0 0.0
2018-Jun-11 06:29N 39°33' E 002°38'0 0.0
2018-Jun-11 05:59N 39°33' E 002°38'0 0.0
2018-Jun-11 05:29N 39°33' E 002°38'0 0.0
2018-Jun-11 04:59N 39°33' E 002°38'0 0.0
2018-Jun-11 04:29N 39°33' E 002°38'0 0.0
2018-Jun-11 03:59N 39°33' E 002°38'0 0.0
2018-Jun-11 03:29N 39°34' E 002°38'0 0.0
2018-Jun-11 02:59N 39°33' E 002°38'0 0.0
2018-Jun-11 02:29N 39°34' E 002°38'0 0.0
2018-Jun-11 01:59N 39°33' E 002°38'0 0.0
2018-Jun-11 01:29N 39°33' E 002°38'0 0.0
2018-Jun-11 00:59N 39°33' E 002°38'0 0.0
2018-Jun-11 00:29N 39°33' E 002°38'0 0.0
2018-Jun-10 23:59N 39°33' E 002°38'0 0.0
2018-Jun-10 23:29N 39°33' E 002°38'0 0.0
2018-Jun-10 22:59N 39°33' E 002°38'0 0.0
2018-Jun-10 22:29N 39°33' E 002°38'0 0.0
2018-Jun-10 21:58N 39°33' E 002°38'0 0.0
2018-Jun-10 21:28N 39°33' E 002°38'0 0.0
2018-Jun-10 20:58N 39°33' E 002°38'0 0.0
2018-Jun-10 20:28N 39°33' E 002°38'0 0.0
2018-Jun-10 20:00N 39°33' E 002°38'0 0.0
2018-Jun-10 19:31N 39°33' E 002°38'0 0.0
2018-Jun-10 18:57N 39°33' E 002°38'0 0.0
2018-Jun-10 18:31N 39°33' E 002°38'0 0.0
2018-Jun-10 18:00N 39°33' E 002°38'0 0.0
2018-Jun-10 17:30N 39°33' E 002°38'0 0.0
2018-Jun-10 17:00N 39°33' E 002°38'0 0.0
2018-Jun-10 16:30N 39°33' E 002°38'0 0.0
2018-Jun-10 16:00N 39°33' E 002°38'0 0.0
2018-Jun-10 15:30N 39°33' E 002°38'0 0.0
2018-Jun-10 15:00N 39°33' E 002°38'0 0.0
2018-Jun-10 14:30N 39°34' E 002°38'0 0.0
2018-Jun-10 13:30N 39°33' E 002°38'0 0.0
2018-Jun-10 13:00N 39°33' E 002°38'0 0.0
2018-Jun-10 12:30N 39°33' E 002°38'0 0.0
2018-Jun-10 12:00N 39°33' E 002°38'0 0.0
2018-Jun-10 11:30N 39°33' E 002°38'0 0.0
2018-Jun-10 11:00N 39°33' E 002°38'0 0.0
2018-Jun-10 10:27N 39°33' E 002°38'0 0.0
2018-Jun-10 10:00N 39°33' E 002°38'0 0.0
2018-Jun-10 09:27N 39°33' E 002°38'0 0.0
2018-Jun-10 09:00N 39°33' E 002°38'0 0.0
2018-Jun-10 08:30N 39°33' E 002°38'0 0.0
2018-Jun-10 08:00N 39°33' E 002°38'0 0.0
2018-Jun-10 07:30N 39°33' E 002°38'0 0.0
2018-Jun-10 07:00N 39°33' E 002°38'0 0.0
2018-Jun-10 06:30N 39°33' E 002°38'0 0.0
2018-Jun-10 06:00N 39°33' E 002°38'0 0.0
2018-Jun-10 05:30N 39°33' E 002°38'0 0.0
2018-Jun-10 05:00N 39°33' E 002°38'0 0.0
2018-Jun-10 04:30N 39°33' E 002°38'0 0.0
2018-Jun-10 04:00N 39°33' E 002°38'0 0.0
2018-Jun-10 03:31N 39°34' E 002°38'0 0.0
2018-Jun-10 03:00N 39°33' E 002°38'0 0.0
2018-Jun-10 02:27N 39°34' E 002°38'0 0.0
2018-Jun-10 02:00N 39°33' E 002°38'0 0.0
2018-Jun-10 01:30N 39°33' E 002°38'0 0.0
2018-Jun-10 01:00N 39°33' E 002°38'0 0.0
2018-Jun-10 00:30N 39°33' E 002°38'0 0.0
2018-Jun-10 00:00N 39°33' E 002°38'0 0.0
2018-Jun-09 23:30N 39°33' E 002°38'0 0.0
2018-Jun-09 23:00N 39°33' E 002°38'0 0.0
2018-Jun-09 22:30N 39°33' E 002°38'0 0.0
2018-Jun-09 22:00N 39°33' E 002°38'0 0.0
2018-Jun-09 21:30N 39°33' E 002°38'0 0.0
2018-Jun-09 21:00N 39°33' E 002°38'0 0.0
2018-Jun-09 20:30N 39°33' E 002°38'0 0.0
2018-Jun-09 20:00N 39°33' E 002°38'0 0.0
2018-Jun-09 19:27N 39°33' E 002°38'0 0.0
2018-Jun-09 19:00N 39°33' E 002°38'0 0.0
2018-Jun-09 18:30N 39°33' E 002°38'0 0.0
2018-Jun-09 18:00N 39°33' E 002°38'0 0.0
2018-Jun-09 17:30N 39°33' E 002°38'0 0.0
2018-Jun-09 17:00N 39°33' E 002°38'0 0.0
2018-Jun-09 16:30N 39°33' E 002°38'0 0.0
2018-Jun-09 16:00N 39°33' E 002°38'0 0.0
2018-Jun-09 15:00N 39°34' E 002°38'0 0.0
2018-Jun-09 14:30N 39°33' E 002°38'0 0.0
2018-Jun-09 14:00N 39°33' E 002°38'0 0.0
2018-Jun-09 13:27N 39°33' E 002°38'0 0.0
2018-Jun-09 12:57N 39°33' E 002°38'0 0.0
2018-Jun-09 12:30N 39°33' E 002°38'0 0.0
2018-Jun-09 12:00N 39°33' E 002°38'0 0.0
2018-Jun-09 11:30N 39°33' E 002°38'0 0.0
2018-Jun-09 11:00N 39°34' E 002°38'0 0.0
2018-Jun-09 10:27N 39°33' E 002°38'0 0.0
2018-Jun-09 10:00N 39°33' E 002°38'0 0.0
2018-Jun-09 09:30N 39°33' E 002°38'0 0.0
2018-Jun-09 09:00N 39°33' E 002°38'0 0.0
2018-Jun-09 08:30N 39°33' E 002°38'0 0.0
2018-Jun-09 08:00N 39°33' E 002°38'0 0.0
2018-Jun-09 07:30N 39°33' E 002°38'0 0.0
2018-Jun-09 07:00N 39°33' E 002°38'0 0.0
2018-Jun-09 06:30N 39°33' E 002°38'0 0.0
2018-Jun-09 06:00N 39°34' E 002°38'0 0.0
2018-Jun-09 05:30N 39°33' E 002°38'0 0.0
2018-Jun-09 05:00N 39°33' E 002°38'0 0.0
2018-Jun-09 04:30N 39°33' E 002°38'0 0.0
2018-Jun-09 04:00N 39°33' E 002°38'0 0.0
2018-Jun-09 03:30N 39°34' E 002°38'0 0.0
2018-Jun-09 03:00N 39°33' E 002°38'0 0.0
2018-Jun-09 02:30N 39°33' E 002°38'0 0.0
2018-Jun-09 02:00N 39°33' E 002°38'0 0.0
2018-Jun-09 01:30N 39°33' E 002°38'0 0.0
2018-Jun-09 01:00N 39°33' E 002°38'0 0.0
2018-Jun-09 00:30N 39°33' E 002°38'0 0.0
2018-Jun-09 00:00N 39°33' E 002°38'0 0.0
2018-Jun-08 23:30N 39°33' E 002°38'0 0.0
2018-Jun-08 23:00N 39°33' E 002°38'0 0.0
2018-Jun-08 22:30N 39°33' E 002°38'0 0.0
2018-Jun-08 21:59N 39°34' E 002°38'0 0.0
2018-Jun-08 21:30N 39°33' E 002°38'0 0.0
2018-Jun-08 20:54N 39°33' E 002°38'0 0.0
2018-Jun-08 20:30N 39°33' E 002°38'0 0.0
2018-Jun-08 20:00N 39°33' E 002°38'0 0.0
2018-Jun-08 19:29N 39°33' E 002°38'0 0.0
2018-Jun-08 19:00N 39°33' E 002°38'0 0.0
2018-Jun-08 18:29N 39°33' E 002°38'0 0.0
2018-Jun-08 17:59N 39°33' E 002°38'0 0.0
2018-Jun-08 17:29N 39°33' E 002°38'0 0.0
2018-Jun-08 16:59N 39°33' E 002°38'0 0.0
2018-Jun-08 16:29N 39°33' E 002°38'0 0.0
2018-Jun-08 15:59N 39°33' E 002°38'0 0.0
2018-Jun-08 15:29N 39°33' E 002°38'0 0.0
2018-Jun-08 14:59N 39°34' E 002°38'0 0.0
2018-Jun-08 14:30N 39°33' E 002°38'0 0.0
2018-Jun-08 13:58N 39°33' E 002°38'0 0.0
2018-Jun-08 13:28N 39°33' E 002°38'0 0.0
2018-Jun-08 12:58N 39°33' E 002°38'0 0.0
2018-Jun-08 12:28N 39°33' E 002°38'0 0.0
2018-Jun-08 11:58N 39°33' E 002°38'0 0.0
2018-Jun-08 11:28N 39°33' E 002°38'0 0.0
2018-Jun-08 10:58N 39°33' E 002°38'0 0.0
2018-Jun-08 10:28N 39°33' E 002°38'0 0.0
2018-Jun-08 09:58N 39°33' E 002°38'0 0.0
2018-Jun-08 09:28N 39°33' E 002°38'0 0.0
2018-Jun-08 08:58N 39°33' E 002°38'0 0.0
2018-Jun-08 08:28N 39°33' E 002°38'0 0.0
2018-Jun-08 07:58N 39°33' E 002°38'0 0.0
2018-Jun-08 07:28N 39°33' E 002°38'0 0.0
2018-Jun-08 07:00N 39°33' E 002°38'0 0.0
2018-Jun-08 06:30N 39°33' E 002°38'0 0.0
2018-Jun-08 06:00N 39°33' E 002°38'0 0.0
2018-Jun-08 05:30N 39°33' E 002°38'0 0.0
2018-Jun-08 05:00N 39°33' E 002°38'0 0.0
2018-Jun-08 04:30N 39°33' E 002°38'0 0.0
2018-Jun-08 04:00N 39°33' E 002°38'0 0.0
2018-Jun-08 03:30N 39°34' E 002°38'0 0.0
2018-Jun-08 02:59N 39°33' E 002°38'0 0.0
2018-Jun-08 02:29N 39°33' E 002°38'0 0.0
2018-Jun-08 01:59N 39°33' E 002°38'0 0.0
2018-Jun-08 01:29N 39°33' E 002°38'0 0.0
2018-Jun-08 00:59N 39°33' E 002°38'0 0.0
2018-Jun-08 00:29N 39°33' E 002°38'0 0.0
2018-Jun-07 23:59N 39°33' E 002°38'0 0.0
2018-Jun-07 23:29N 39°33' E 002°38'0 0.0
2018-Jun-07 23:00N 39°33' E 002°38'0 0.0
2018-Jun-07 22:30N 39°33' E 002°38'0 0.0
2018-Jun-07 22:00N 39°33' E 002°38'0 0.0
2018-Jun-07 21:30N 39°33' E 002°38'0 0.0
2018-Jun-07 21:00N 39°33' E 002°38'0 0.0
2018-Jun-07 20:30N 39°33' E 002°38'0 0.0
2018-Jun-07 20:00N 39°33' E 002°38'0 0.0
2018-Jun-07 19:30N 39°33' E 002°38'0 0.0
2018-Jun-07 19:00N 39°33' E 002°38'0 0.0
2018-Jun-07 18:30N 39°33' E 002°38'0 0.0
2018-Jun-07 18:00N 39°33' E 002°38'0 0.0
2018-Jun-07 17:30N 39°33' E 002°38'0 0.0
2018-Jun-07 17:00N 39°33' E 002°38'0 0.0
2018-Jun-07 16:30N 39°33' E 002°38'0 0.0
2018-Jun-07 16:00N 39°33' E 002°38'0 0.0
2018-Jun-07 15:30N 39°33' E 002°38'0 0.0
2018-Jun-07 15:00N 39°34' E 002°38'0 0.0
2018-Jun-07 14:30N 39°33' E 002°38'0 0.0
2018-Jun-07 14:00N 39°33' E 002°38'0 0.0
2018-Jun-07 13:30N 39°34' E 002°38'0 0.0
2018-Jun-07 13:00N 39°33' E 002°38'0 0.0
2018-Jun-07 12:30N 39°33' E 002°38'0 0.0
2018-Jun-07 12:00N 39°34' E 002°38'0 0.0
2018-Jun-07 11:30N 39°33' E 002°38'0 0.0
2018-Jun-07 11:00N 39°34' E 002°38'0 0.0
2018-Jun-07 10:28N 39°33' E 002°38'0 0.0
2018-Jun-07 09:58N 39°33' E 002°38'0 0.0
2018-Jun-07 09:28N 39°33' E 002°38'0 0.0
2018-Jun-07 08:58N 39°33' E 002°38'0 0.0
2018-Jun-07 08:28N 39°33' E 002°38'0 0.0
2018-Jun-07 07:58N 39°33' E 002°38'0 0.0
2018-Jun-07 07:28N 39°33' E 002°38'0 0.0
2018-Jun-07 06:58N 39°33' E 002°38'0 0.0
2018-Jun-07 06:28N 39°33' E 002°38'0 0.0
2018-Jun-07 05:58N 39°33' E 002°38'0 0.0
2018-Jun-07 05:28N 39°33' E 002°38'0 0.0
2018-Jun-07 04:58N 39°33' E 002°38'0 0.0
2018-Jun-07 04:28N 39°33' E 002°38'0 0.0
2018-Jun-07 03:58N 39°33' E 002°38'0 0.0
2018-Jun-07 03:28N 39°34' E 002°38'0 0.0
2018-Jun-07 02:58N 39°34' E 002°38'0 0.0
2018-Jun-07 02:28N 39°33' E 002°38'0 0.0
2018-Jun-07 01:58N 39°33' E 002°38'0 0.0
2018-Jun-07 01:28N 39°33' E 002°38'0 0.0
2018-Jun-07 00:58N 39°33' E 002°38'0 0.0
2018-Jun-07 00:28N 39°33' E 002°38'0 0.0
2018-Jun-06 23:58N 39°33' E 002°38'0 0.0
2018-Jun-06 23:28N 39°33' E 002°38'0 0.0
2018-Jun-06 22:58N 39°33' E 002°38'0 0.0
2018-Jun-06 22:28N 39°33' E 002°38'0 0.0
2018-Jun-06 21:58N 39°33' E 002°38'0 0.0
2018-Jun-06 21:28N 39°33' E 002°38'0 0.2
2018-Jun-06 20:59N 39°33' E 002°38'2 4.6
2018-Jun-06 20:30N 39°31' E 002°37'4 7.8
2018-Jun-06 20:00N 39°29' E 002°33'4 7.7
2018-Jun-06 19:30N 39°26' E 002°29'49 7.3
2018-Jun-06 12:44N 38°59' E 001°37'2 7.8
2018-Jun-06 12:30N 38°58' E 001°35'4 7.8
2018-Jun-06 12:00N 38°55' E 001°31'3 6.0
2018-Jun-06 11:26N 38°54' E 001°27'0 0.9
2018-Jun-06 10:59N 38°55' E 001°27'0 0.0
2018-Jun-06 10:29N 38°55' E 001°27'0 0.0
2018-Jun-06 09:59N 38°55' E 001°27'0 0.0
2018-Jun-06 09:31N 38°55' E 001°27'0 0.0
2018-Jun-06 08:55N 38°55' E 001°27'0 0.0
2018-Jun-06 08:28N 38°55' E 001°27'0 0.0
2018-Jun-06 07:55N 38°55' E 001°27'0 0.0
2018-Jun-06 07:28N 38°55' E 001°27'0 0.0
2018-Jun-06 06:58N 38°55' E 001°27'0 0.0
2018-Jun-06 06:22N 38°55' E 001°27'0 0.0
2018-Jun-06 01:19N 38°55' E 001°27'0 0.0
2018-Jun-05 21:49N 38°55' E 001°27'0 0.0
2018-Jun-05 20:58N 38°55' E 001°27'0 0.0
2018-Jun-05 19:16N 38°55' E 001°27'0 0.0
2018-Jun-05 18:58N 38°55' E 001°27'0 0.0
2018-Jun-05 18:16N 38°55' E 001°27'0 0.0
2018-Jun-05 17:58N 38°55' E 001°27'0 0.0
2018-Jun-05 17:31N 38°55' E 001°27'0 0.0
2018-Jun-05 16:58N 38°55' E 001°27'0 0.0
2018-Jun-05 16:28N 38°55' E 001°27'0 0.0
2018-Jun-05 15:58N 38°55' E 001°27'0 0.0
2018-Jun-05 15:28N 38°55' E 001°27'0 0.0
2018-Jun-05 15:01N 38°55' E 001°27'0 0.0
2018-Jun-05 14:28N 38°55' E 001°27'0 0.0
2018-Jun-05 13:58N 38°55' E 001°27'0 0.0
2018-Jun-05 13:28N 38°55' E 001°27'0 0.0
2018-Jun-05 13:01N 38°55' E 001°27'0 0.0
2018-Jun-05 12:28N 38°55' E 001°27'0 0.0
2018-Jun-05 11:58N 38°55' E 001°27'0 0.0
2018-Jun-05 11:31N 38°55' E 001°27'0 0.0
2018-Jun-05 10:58N 38°55' E 001°27'0 0.0
2018-Jun-05 10:28N 38°55' E 001°27'0 0.0
2018-Jun-05 09:58N 38°55' E 001°27'0 0.0
2018-Jun-05 09:28N 38°55' E 001°27'0 0.0
2018-Jun-05 08:58N 38°55' E 001°27'0 0.0
2018-Jun-05 08:28N 38°55' E 001°27'0 0.0
2018-Jun-05 08:01N 38°55' E 001°27'  

Dump ship's entire track history